createdAt,value
2022-08-17T00:00:51.882Z,31.70
2022-08-17T00:03:18.677Z,30.85
2022-08-17T00:05:45.280Z,28.27
2022-08-17T00:08:12.374Z,28.73
2022-08-17T00:10:38.892Z,29.00
2022-08-17T00:13:07.168Z,28.63
2022-08-17T00:15:33.526Z,28.75
2022-08-17T00:17:59.947Z,26.92
2022-08-17T00:20:33.555Z,28.00
2022-08-17T00:23:02.467Z,28.77
2022-08-17T00:25:29.074Z,32.60
2022-08-17T00:27:55.917Z,30.08
2022-08-17T00:30:24.605Z,32.10
2022-08-17T00:33:14.778Z,31.20
2022-08-17T00:35:38.596Z,31.30
2022-08-17T00:38:07.600Z,32.10
2022-08-17T00:40:44.359Z,28.92
2022-08-17T00:43:29.508Z,29.42
2022-08-17T00:45:56.241Z,31.13
2022-08-17T00:48:29.570Z,28.48
2022-08-17T00:51:12.218Z,31.23
2022-08-17T00:53:40.539Z,29.70
2022-08-17T00:56:07.962Z,29.00
2022-08-17T00:58:36.142Z,30.55
2022-08-17T01:01:03.735Z,30.85
2022-08-17T01:03:31.096Z,31.35
2022-08-17T01:06:00.047Z,30.92
2022-08-17T01:08:28.085Z,30.65
2022-08-17T01:10:59.778Z,30.35
2022-08-17T01:13:30.673Z,27.75
2022-08-17T01:15:59.897Z,28.75
2022-08-17T01:18:26.594Z,28.88
2022-08-17T01:20:54.954Z,27.98
2022-08-17T01:23:23.378Z,27.95
2022-08-17T01:25:51.503Z,28.23
2022-08-17T01:28:33.630Z,28.50
2022-08-17T01:31:06.907Z,25.27
2022-08-17T01:33:33.661Z,28.17
2022-08-17T01:36:00.724Z,29.20
2022-08-17T01:38:31.633Z,28.17
2022-08-17T01:41:03.164Z,29.17
2022-08-17T01:43:39.612Z,29.30
2022-08-17T01:46:06.117Z,29.13
2022-08-17T01:48:33.663Z,29.15
2022-08-17T01:51:00.428Z,30.30
2022-08-17T01:53:31.058Z,28.13
2022-08-17T01:55:59.240Z,30.75
2022-08-17T01:58:25.908Z,31.38
2022-08-17T02:01:00.677Z,28.60
2022-08-17T02:03:28.885Z,27.67
2022-08-17T02:05:55.365Z,28.15
2022-08-17T02:08:37.015Z,30.95
2022-08-17T02:11:11.172Z,28.65
2022-08-17T02:13:38.393Z,29.38
2022-08-17T02:16:04.863Z,27.00
2022-08-17T02:18:31.273Z,28.10
2022-08-17T02:20:57.731Z,28.80
2022-08-17T02:23:25.281Z,27.85
2022-08-17T02:25:52.242Z,26.02
2022-08-17T02:28:18.996Z,26.63
2022-08-17T02:30:59.984Z,28.83
2022-08-17T02:33:42.167Z,27.35
2022-08-17T02:36:10.881Z,26.35
2022-08-17T02:38:38.134Z,26.48
2022-08-17T02:41:05.210Z,26.52
2022-08-17T02:43:31.858Z,26.15
2022-08-17T02:45:58.381Z,25.77
2022-08-17T02:48:30.534Z,25.40
2022-08-17T02:50:57.844Z,26.48
2022-08-17T02:53:24.144Z,26.48
2022-08-17T02:55:52.447Z,26.75
2022-08-17T02:58:35.101Z,28.15
2022-08-17T03:01:03.347Z,25.20
2022-08-17T03:03:29.954Z,27.77
2022-08-17T03:05:56.624Z,26.30
2022-08-17T03:08:23.322Z,26.30
2022-08-17T03:10:50.586Z,25.58
2022-08-17T03:13:17.383Z,25.75
2022-08-17T03:15:45.250Z,24.67
2022-08-17T03:18:19.204Z,25.17
2022-08-17T03:20:51.257Z,24.35
2022-08-17T03:23:17.680Z,25.83
2022-08-17T03:25:45.979Z,25.00
2022-08-17T03:28:12.738Z,26.50
2022-08-17T03:30:39.888Z,23.13
2022-08-17T03:33:07.587Z,24.50
2022-08-17T03:35:34.942Z,23.80
2022-08-17T03:38:01.471Z,25.10
2022-08-17T03:40:55.274Z,24.73
2022-08-17T03:43:15.041Z,25.35
2022-08-17T03:46:01.108Z,22.80
2022-08-17T03:51:34.532Z,23.27
2022-08-17T03:54:19.294Z,23.27
2022-08-17T03:56:56.941Z,23.17
2022-08-17T03:59:23.600Z,24.38
2022-08-17T04:01:53.811Z,22.73
2022-08-17T04:04:21.049Z,22.88
2022-08-17T04:06:54.227Z,22.67
2022-08-17T04:09:20.700Z,22.92
2022-08-17T04:11:47.342Z,21.88
2022-08-17T04:14:13.768Z,21.92
2022-08-17T04:16:40.241Z,22.63
2022-08-17T04:19:07.081Z,23.95
2022-08-17T04:21:34.481Z,21.63
2022-08-17T04:24:01.060Z,22.60
2022-08-17T04:26:52.717Z,22.88
2022-08-17T04:29:14.801Z,21.48
2022-08-17T04:31:41.180Z,22.08
2022-08-17T04:34:07.692Z,20.15
2022-08-17T04:36:34.038Z,20.05
2022-08-17T04:39:00.641Z,19.45
2022-08-17T04:41:45.552Z,19.85
2022-08-17T04:44:12.478Z,19.33
2022-08-17T04:46:39.341Z,18.40
2022-08-17T04:49:07.755Z,19.67
2022-08-17T04:51:45.543Z,20.35
2022-08-17T04:54:24.890Z,18.70
2022-08-17T04:56:51.424Z,17.92
2022-08-17T04:59:19.758Z,16.42
2022-08-17T05:01:47.035Z,19.25
2022-08-17T05:04:21.347Z,17.63
2022-08-17T05:07:01.088Z,17.83
2022-08-17T05:09:27.630Z,18.85
2022-08-17T05:11:55.339Z,17.75
2022-08-17T05:14:22.802Z,16.42
2022-08-17T05:16:59.703Z,17.92
2022-08-17T05:19:27.480Z,16.55
2022-08-17T05:21:53.861Z,15.50
2022-08-17T05:24:42.467Z,16.52
2022-08-17T05:27:06.883Z,17.65
2022-08-17T05:29:34.315Z,18.75
2022-08-17T05:32:38.642Z,18.20
2022-08-17T05:34:59.397Z,16.30
2022-08-17T05:37:25.726Z,17.52
2022-08-17T05:39:53.363Z,17.17
2022-08-17T05:42:19.933Z,16.30
2022-08-17T05:44:46.261Z,17.08
2022-08-17T05:47:12.596Z,15.50
2022-08-17T05:49:38.932Z,15.65
2022-08-17T05:52:19.866Z,16.27
2022-08-17T05:54:58.623Z,14.93
2022-08-17T05:57:47.649Z,15.30
2022-08-17T06:00:26.331Z,15.23
2022-08-17T06:03:24.479Z,14.85
2022-08-17T06:05:55.336Z,14.48
2022-08-17T06:08:21.965Z,15.88
2022-08-17T06:10:48.573Z,15.65
2022-08-17T06:13:21.928Z,15.50
2022-08-17T06:16:02.378Z,13.63
2022-08-17T06:18:41.655Z,13.77
2022-08-17T06:21:11.592Z,14.93
2022-08-17T06:23:43.425Z,15.55
2022-08-17T06:26:27.513Z,14.65
2022-08-17T06:29:08.864Z,14.45
2022-08-17T06:31:45.288Z,14.45
2022-08-17T06:34:11.981Z,14.98
2022-08-17T06:36:50.336Z,14.65
2022-08-17T06:39:23.008Z,14.25
2022-08-17T06:42:09.454Z,15.95
2022-08-17T06:45:02.532Z,14.43
2022-08-17T06:47:31.580Z,15.82
2022-08-17T06:50:17.642Z,15.88
2022-08-17T06:52:55.919Z,15.30
2022-08-17T06:55:26.547Z,15.48
2022-08-17T06:57:55.138Z,15.40
2022-08-17T07:00:27.775Z,15.63
2022-08-17T07:03:12.614Z,14.50
2022-08-17T07:05:44.530Z,14.82
2022-08-17T07:08:35.203Z,15.52
2022-08-17T07:11:22.020Z,14.57
2022-08-17T07:13:53.683Z,15.75
2022-08-17T07:16:33.281Z,15.75
2022-08-17T07:18:59.892Z,14.35
2022-08-17T07:21:32.380Z,15.40
2022-08-17T07:24:03.333Z,14.70
2022-08-17T07:26:29.771Z,16.15
2022-08-17T07:28:56.249Z,15.32
2022-08-17T07:31:24.923Z,16.17
2022-08-17T07:34:02.467Z,15.07
2022-08-17T07:36:33.711Z,15.70
2022-08-17T07:39:01.411Z,16.20
2022-08-17T07:41:57.349Z,16.42
2022-08-17T07:44:15.838Z,16.73
2022-08-17T07:47:08.497Z,17.30
2022-08-17T07:49:37.045Z,16.38
2022-08-17T07:52:24.111Z,16.05
2022-08-17T07:54:51.980Z,17.13
2022-08-17T07:57:29.392Z,17.73
2022-08-17T08:00:02.124Z,15.27
2022-08-17T08:02:31.759Z,16.10
2022-08-17T08:05:02.855Z,15.88
2022-08-17T08:07:38.344Z,14.68
2022-08-17T08:10:07.868Z,15.40
2022-08-17T08:12:40.375Z,14.43
2022-08-17T08:15:14.973Z,14.68
2022-08-17T08:17:58.515Z,16.45
2022-08-17T08:20:53.330Z,15.02
2022-08-17T08:23:34.682Z,13.55
2022-08-17T08:26:21.277Z,13.20
2022-08-17T08:28:47.578Z,14.10
2022-08-17T08:31:41.609Z,13.93
2022-08-17T08:35:00.580Z,13.48
2022-08-17T08:37:30.379Z,13.27
2022-08-17T08:40:11.011Z,13.32
2022-08-17T08:42:43.636Z,13.75
2022-08-17T08:45:13.758Z,14.20
2022-08-17T08:47:58.807Z,14.07
2022-08-17T08:50:39.777Z,14.55
2022-08-17T08:53:11.978Z,14.23
2022-08-17T08:55:44.040Z,13.45
2022-08-17T08:58:31.801Z,13.70
2022-08-17T09:01:08.703Z,15.63
2022-08-17T09:03:52.922Z,13.88
2022-08-17T09:06:33.363Z,14.45
2022-08-17T09:09:13.648Z,14.93
2022-08-17T09:12:01.755Z,14.52
2022-08-17T09:14:44.934Z,14.23
2022-08-17T09:17:15.233Z,15.55
2022-08-17T09:19:46.420Z,16.60
2022-08-17T09:22:31.329Z,16.50
2022-08-17T09:25:08.114Z,15.85
2022-08-17T09:27:38.226Z,16.00
2022-08-17T09:30:07.868Z,15.95
2022-08-17T09:32:40.368Z,17.80
2022-08-17T09:35:19.339Z,17.00
2022-08-17T09:37:48.931Z,15.60
2022-08-17T09:40:21.540Z,18.00
2022-08-17T09:42:54.295Z,17.92
2022-08-17T09:45:38.804Z,18.33
2022-08-17T09:48:14.717Z,19.90
2022-08-17T09:50:57.368Z,18.13
2022-08-17T09:53:32.218Z,19.70
2022-08-17T09:55:58.588Z,18.98
2022-08-17T09:58:34.683Z,18.40
2022-08-17T10:01:13.389Z,17.55
2022-08-17T10:04:05.540Z,19.38
2022-08-17T10:06:35.380Z,19.23
2022-08-17T10:09:13.660Z,15.63
2022-08-17T10:12:06.579Z,19.33
2022-08-17T10:14:44.006Z,17.42
2022-08-17T10:17:20.399Z,19.25
2022-08-17T10:19:53.364Z,19.77
2022-08-17T10:22:41.605Z,20.88
2022-08-17T10:25:48.617Z,21.55
2022-08-17T10:28:19.723Z,20.27
2022-08-17T10:30:49.226Z,20.05
2022-08-17T10:33:17.069Z,20.05
2022-08-17T10:35:43.426Z,20.92
2022-08-17T10:38:27.584Z,20.85
2022-08-17T10:40:53.924Z,22.80
2022-08-17T10:43:44.714Z,22.33
2022-08-17T10:46:52.146Z,23.58
2022-08-17T10:49:18.574Z,23.25
2022-08-17T10:51:47.385Z,20.98
2022-08-17T10:54:25.761Z,22.33
2022-08-17T10:56:53.362Z,23.10
2022-08-17T10:59:34.940Z,24.48
2022-08-17T11:02:01.224Z,24.13
2022-08-17T11:04:43.274Z,26.63
2022-08-17T11:07:28.125Z,30.05
2022-08-17T11:10:00.326Z,28.73
2022-08-17T11:12:33.145Z,30.38
2022-08-17T11:15:00.362Z,31.92
2022-08-17T11:17:45.473Z,29.90
2022-08-17T11:20:16.234Z,29.23
2022-08-17T11:22:48.805Z,28.70
2022-08-17T11:25:17.673Z,28.35
2022-08-17T11:27:45.136Z,28.88
2022-08-17T11:30:13.758Z,29.13
2022-08-17T11:32:47.739Z,28.00
2022-08-17T11:35:15.016Z,26.70
2022-08-17T11:37:45.952Z,35.88
2022-08-17T11:40:27.715Z,31.75
2022-08-17T11:42:59.750Z,27.55
2022-08-17T11:45:33.064Z,26.58
2022-08-17T11:48:28.288Z,24.77
2022-08-17T11:51:18.154Z,27.20
2022-08-17T11:53:45.778Z,24.27
2022-08-17T11:56:12.089Z,23.48
2022-08-17T11:58:40.588Z,25.55
2022-08-17T12:01:06.895Z,24.50
2022-08-17T12:03:33.359Z,25.33
2022-08-17T12:06:30.419Z,23.23
2022-08-17T12:09:14.067Z,21.50
2022-08-17T12:11:58.767Z,23.27
2022-08-17T12:15:08.539Z,23.52
2022-08-17T12:17:39.658Z,22.52
2022-08-17T12:20:09.520Z,24.85
2022-08-17T12:23:00.966Z,23.20
2022-08-17T12:25:33.609Z,22.05
2022-08-17T12:28:06.412Z,23.38
2022-08-17T12:30:34.841Z,21.98
2022-08-17T12:33:01.322Z,22.70
2022-08-17T12:35:35.788Z,21.48
2022-08-17T12:38:02.960Z,23.38
2022-08-17T12:40:31.521Z,22.48
2022-08-17T12:43:03.833Z,23.40
2022-08-17T12:45:32.451Z,23.92
2022-08-17T12:48:12.694Z,22.70
2022-08-17T12:50:44.387Z,23.85
2022-08-17T12:53:30.975Z,23.80
2022-08-17T12:55:58.773Z,22.65
2022-08-17T12:58:28.045Z,22.63
2022-08-17T13:00:56.735Z,21.70
2022-08-17T13:03:24.000Z,22.70
2022-08-17T13:06:00.839Z,22.35
2022-08-17T13:08:30.281Z,23.30
2022-08-17T13:11:00.912Z,40.47
2022-08-17T13:13:28.950Z,26.70
2022-08-17T13:16:21.528Z,23.48
2022-08-17T13:18:48.001Z,24.17
2022-08-17T13:21:18.745Z,25.40
2022-08-17T13:24:02.336Z,25.08
2022-08-17T13:26:31.901Z,25.08
2022-08-17T13:28:58.586Z,26.42
2022-08-17T13:31:28.654Z,26.52
2022-08-17T13:34:13.953Z,26.02
2022-08-17T13:36:43.717Z,27.02
2022-08-17T13:39:16.847Z,27.10
2022-08-17T13:41:43.201Z,26.58
2022-08-17T13:44:28.294Z,25.98
2022-08-17T13:46:56.923Z,26.70
2022-08-17T13:49:23.623Z,26.73
2022-08-17T13:51:50.436Z,28.27
2022-08-17T13:54:20.443Z,27.20
2022-08-17T13:56:53.324Z,27.17
2022-08-17T13:59:54.830Z,26.45
2022-08-17T14:02:22.583Z,27.33
2022-08-17T14:04:52.953Z,27.63
2022-08-17T14:07:19.618Z,27.35
2022-08-17T14:10:06.233Z,27.80
2022-08-17T14:12:33.601Z,30.50
2022-08-17T14:15:00.195Z,29.10
2022-08-17T14:17:28.874Z,30.13
2022-08-17T14:19:55.268Z,27.60
2022-08-17T14:22:25.672Z,30.10
2022-08-17T14:24:52.057Z,28.75
2022-08-17T14:27:19.377Z,28.55
2022-08-17T14:29:45.725Z,29.85
2022-08-17T14:32:17.171Z,27.23
2022-08-17T14:34:44.807Z,24.83
2022-08-17T14:37:11.182Z,23.42
2022-08-17T14:39:37.714Z,22.65
2022-08-17T14:42:04.292Z,23.83
2022-08-17T14:44:30.656Z,24.67
2022-08-17T14:46:56.987Z,24.70
2022-08-17T14:49:23.869Z,23.02
2022-08-17T14:51:50.337Z,24.85
2022-08-17T14:54:32.924Z,25.08
2022-08-17T14:57:23.283Z,23.45
2022-08-17T14:59:48.376Z,24.48
2022-08-17T15:02:19.729Z,23.58
2022-08-17T15:04:47.803Z,24.33
2022-08-17T15:07:17.799Z,21.65
2022-08-17T15:09:44.461Z,24.33
2022-08-17T15:12:16.716Z,23.92
2022-08-17T15:14:43.040Z,26.30
2022-08-17T15:17:09.376Z,24.42
2022-08-17T15:19:35.699Z,23.10
2022-08-17T15:22:02.018Z,24.65
2022-08-17T15:24:28.388Z,25.85
2022-08-17T15:26:54.725Z,26.10
2022-08-17T15:29:21.190Z,26.55
2022-08-17T15:31:47.820Z,24.83
2022-08-17T15:34:14.361Z,26.48
2022-08-17T15:36:40.743Z,25.38
2022-08-17T15:39:15.613Z,26.35
2022-08-17T15:41:47.270Z,25.80
2022-08-17T15:44:24.524Z,26.27
2022-08-17T15:46:59.150Z,26.60
2022-08-17T15:49:25.673Z,26.25
2022-08-17T15:51:52.020Z,28.75
2022-08-17T15:54:22.584Z,29.98
2022-08-17T15:56:50.148Z,29.60
2022-08-17T15:59:16.472Z,29.83
2022-08-17T16:03:04.657Z,29.67
2022-08-17T16:04:30.957Z,28.00
2022-08-17T16:06:59.025Z,30.25
2022-08-17T16:09:25.335Z,31.88
2022-08-17T16:11:53.790Z,32.80
2022-08-17T16:14:22.357Z,32.40
2022-08-17T16:16:50.357Z,30.58
2022-08-17T16:19:16.701Z,27.23
2022-08-17T16:21:43.398Z,28.80
2022-08-17T16:24:13.637Z,29.45
2022-08-17T16:26:41.630Z,30.52
2022-08-17T16:29:08.228Z,30.33
2022-08-17T16:31:35.962Z,29.80
2022-08-17T16:34:17.207Z,28.55
2022-08-17T16:36:51.770Z,28.60
2022-08-17T16:39:23.530Z,31.90
2022-08-17T16:41:50.283Z,30.25
2022-08-17T16:44:17.906Z,28.90
2022-08-17T16:46:45.749Z,30.45
2022-08-17T16:49:13.535Z,30.27
2022-08-17T16:52:01.538Z,29.77
2022-08-17T16:54:27.906Z,30.88
2022-08-17T16:56:54.230Z,30.65
2022-08-17T16:59:30.730Z,31.85
2022-08-17T17:02:11.218Z,33.42
2022-08-17T17:04:43.502Z,35.45
2022-08-17T17:07:12.649Z,33.92
2022-08-17T17:09:39.062Z,33.95
2022-08-17T17:12:12.874Z,34.83
2022-08-17T17:14:41.145Z,35.95
2022-08-17T17:17:13.415Z,35.20
2022-08-17T17:19:45.409Z,33.72
2022-08-17T17:22:11.707Z,35.47
2022-08-17T17:25:01.365Z,35.60
2022-08-17T17:27:42.707Z,33.38
2022-08-17T17:30:24.159Z,34.63
2022-08-17T17:33:05.711Z,34.75
2022-08-17T17:35:33.726Z,33.00
2022-08-17T17:38:05.171Z,32.97
2022-08-17T17:40:50.093Z,36.78
2022-08-17T17:43:39.836Z,35.67
2022-08-17T17:46:27.943Z,32.08
2022-08-17T17:48:55.441Z,33.90
2022-08-17T17:51:55.012Z,35.70
2022-08-17T17:54:19.193Z,32.63
2022-08-17T17:56:49.757Z,33.92
2022-08-17T17:59:29.130Z,33.22
2022-08-17T18:02:05.959Z,33.00
2022-08-17T18:04:36.638Z,33.53
2022-08-17T18:07:03.154Z,33.72
2022-08-17T18:09:38.413Z,34.45
2022-08-17T18:12:20.463Z,34.25
2022-08-17T18:14:56.398Z,34.40
2022-08-17T18:17:23.937Z,34.53
2022-08-17T18:19:50.521Z,33.58
2022-08-17T18:22:20.508Z,33.25
2022-08-17T18:24:48.844Z,32.88
2022-08-17T18:27:21.423Z,32.13
2022-08-17T18:29:48.639Z,31.98
2022-08-17T18:32:18.895Z,31.58
2022-08-17T18:34:48.070Z,32.60
2022-08-17T18:37:29.221Z,31.15
2022-08-17T18:39:55.678Z,32.17
2022-08-17T18:42:28.825Z,31.80
2022-08-17T18:44:55.671Z,31.95
2022-08-17T18:47:28.968Z,33.55
2022-08-17T18:50:02.000Z,30.90
2022-08-17T18:52:29.984Z,32.25
2022-08-17T18:54:59.597Z,31.55
2022-08-17T18:57:46.355Z,31.77
2022-08-17T19:00:31.685Z,31.40
2022-08-17T19:03:02.379Z,30.27
2022-08-17T19:05:36.845Z,30.08
2022-08-17T19:08:18.606Z,32.92
2022-08-17T19:10:47.331Z,32.88
2022-08-17T19:13:24.084Z,32.17
2022-08-17T19:16:12.070Z,30.77
2022-08-17T19:19:01.244Z,30.45
2022-08-17T19:21:27.580Z,33.25
2022-08-17T19:23:59.201Z,30.33
2022-08-17T19:26:54.647Z,32.63
2022-08-17T19:29:22.114Z,31.98
2022-08-17T19:31:49.120Z,32.13
2022-08-17T19:34:17.210Z,33.13
2022-08-17T19:37:02.187Z,34.08
2022-08-17T19:39:38.282Z,33.40
2022-08-17T19:42:11.239Z,34.97
2022-08-17T19:44:48.898Z,32.80
2022-08-17T19:47:53.320Z,33.85
2022-08-17T19:50:23.823Z,34.33
2022-08-17T19:52:53.378Z,35.63
2022-08-17T19:55:47.667Z,37.65
2022-08-17T19:58:31.785Z,32.63
2022-08-17T20:01:00.286Z,36.22
2022-08-17T20:03:44.788Z,38.00
2022-08-17T20:06:14.557Z,37.60
2022-08-17T20:08:48.531Z,34.13
2022-08-17T20:11:30.970Z,40.45
2022-08-17T20:14:05.428Z,35.55
2022-08-17T20:16:32.783Z,37.88
2022-08-17T20:19:01.023Z,37.47
2022-08-17T20:21:39.708Z,38.13
2022-08-17T20:24:12.108Z,41.30
2022-08-17T20:26:55.164Z,42.65
2022-08-17T20:29:39.594Z,43.95
2022-08-17T20:32:14.183Z,47.45
2022-08-17T20:34:41.010Z,47.78
2022-08-17T20:37:25.693Z,48.30
2022-08-17T20:39:58.793Z,46.75
2022-08-17T20:42:26.303Z,46.88
2022-08-17T20:44:58.183Z,45.05
2022-08-17T20:47:35.182Z,42.97
2022-08-17T20:50:10.484Z,40.72
2022-08-17T20:52:53.740Z,41.45
2022-08-17T20:55:51.520Z,37.53
2022-08-17T20:58:24.670Z,34.78
2022-08-17T21:00:57.143Z,36.20
2022-08-17T21:03:23.825Z,37.45
2022-08-17T21:05:57.380Z,37.42
2022-08-17T21:08:27.627Z,35.85
2022-08-17T21:10:54.629Z,36.67
2022-08-17T21:13:34.977Z,32.72
2022-08-17T21:16:23.222Z,35.97
2022-08-17T21:18:58.442Z,36.15
2022-08-17T21:21:31.310Z,35.15
2022-08-17T21:23:57.744Z,34.70
2022-08-17T21:26:50.444Z,36.78
2022-08-17T21:29:31.608Z,42.35
2022-08-17T21:32:01.724Z,43.55
2022-08-17T21:34:44.299Z,43.80
2022-08-17T21:37:20.032Z,44.40
2022-08-17T21:39:51.585Z,44.80
2022-08-17T21:42:22.986Z,42.35
2022-08-17T21:44:50.958Z,37.75
2022-08-17T21:47:25.345Z,37.38
2022-08-17T21:49:54.782Z,39.15
2022-08-17T21:52:23.961Z,38.45
2022-08-17T21:54:52.206Z,39.65
2022-08-17T21:57:29.509Z,38.05
2022-08-17T22:00:03.529Z,38.22
2022-08-17T22:02:34.637Z,36.67
2022-08-17T22:05:02.683Z,36.80
2022-08-17T22:07:40.918Z,36.17
2022-08-17T22:10:09.418Z,36.47
2022-08-17T22:12:35.889Z,33.92
2022-08-17T22:15:15.770Z,34.85
2022-08-17T22:17:46.540Z,35.63
2022-08-17T22:20:15.793Z,35.85
2022-08-17T22:23:07.203Z,32.25
2022-08-17T22:25:37.976Z,32.53
2022-08-17T22:28:06.013Z,31.92
2022-08-17T22:30:32.552Z,34.78
2022-08-17T22:32:59.408Z,32.80
2022-08-17T22:35:29.148Z,34.88
2022-08-17T22:37:56.236Z,35.05
2022-08-17T22:40:29.108Z,37.15
2022-08-17T22:42:57.560Z,34.20
2022-08-17T22:45:27.295Z,33.35
2022-08-17T22:47:55.804Z,33.42
2022-08-17T22:50:26.797Z,33.33
2022-08-17T22:53:19.555Z,29.33
2022-08-17T22:56:28.885Z,30.25
2022-08-17T22:59:19.417Z,29.85
2022-08-17T23:02:04.779Z,29.40
2022-08-17T23:04:31.339Z,30.80
2022-08-17T23:06:58.200Z,28.00
2022-08-17T23:09:24.583Z,29.52
2022-08-17T23:11:52.996Z,29.40
2022-08-17T23:14:20.991Z,27.73
2022-08-17T23:16:48.299Z,26.27
2022-08-17T23:19:16.258Z,26.55
2022-08-17T23:21:44.925Z,26.42
2022-08-17T23:24:14.541Z,26.65
2022-08-17T23:26:41.127Z,27.52
2022-08-17T23:29:09.117Z,27.25
2022-08-17T23:31:38.008Z,26.77
2022-08-17T23:34:05.781Z,26.20
2022-08-17T23:36:36.079Z,29.67
2022-08-17T23:39:03.490Z,31.05
2022-08-17T23:41:33.179Z,32.97
2022-08-17T23:44:00.483Z,30.65
2022-08-17T23:46:27.070Z,30.55
2022-08-17T23:48:54.106Z,32.38
2022-08-17T23:51:26.747Z,32.58
2022-08-17T23:53:58.114Z,35.65
2022-08-17T23:56:25.984Z,33.95
2022-08-17T23:58:54.879Z,34.20
